RYR80RZ LZIB-LDZD
Flight info
| Callsign | RYR80RZ |
|---|---|
| Flight time | 0h 50m |
| Altitude | 36000 |
| Route | TOVKA DCT FMD DCT INSAX DCT TISKO DCT PETOV DCT KUDUL |
| Aircraft | A320/M-SDE3FGHIRWY/LB1 |
Departure
| Time | 2026-05-07 23:36 |
|---|---|
| Airport | M. R. Štefánik Airport (LZIB) |
Arrival
| Time | 2026-05-08 00:27 |
|---|---|
| Airport | Zadar Airport (LDZD) |
| Time | Latitude | Longitude | Altitude | Speed | Heading |
|---|---|---|---|---|---|
| 2026-05-07 23:12 | 48.16830 | 17.19961 | 432 ft | 0 kts | 315° |
| 2026-05-07 23:24 | 48.16826 | 17.19966 | 421 ft | 3 kts | 315° |
| 2026-05-07 23:24 | 48.16811 | 17.19990 | 423 ft | 3 kts | 314° |
| 2026-05-07 23:25 | 48.16798 | 17.20010 | 423 ft | 3 kts | 340° |
| 2026-05-07 23:25 | 48.16779 | 17.20009 | 420 ft | 3 kts | 31° |
| 2026-05-07 23:25 | 48.16762 | 17.19991 | 428 ft | 2 kts | 44° |
| 2026-05-07 23:25 | 48.16761 | 17.19989 | 428 ft | 0 kts | 44° |
| 2026-05-07 23:29 | 48.16768 | 17.19999 | 430 ft | 7 kts | 44° |
| 2026-05-07 23:29 | 48.16816 | 17.20065 | 430 ft | 9 kts | 43° |
| 2026-05-07 23:29 | 48.16860 | 17.20129 | 424 ft | 8 kts | 44° |
| 2026-05-07 23:29 | 48.16900 | 17.20186 | 430 ft | 8 kts | 44° |
| 2026-05-07 23:30 | 48.16935 | 17.20237 | 427 ft | 7 kts | 44° |
| 2026-05-07 23:30 | 48.16974 | 17.20293 | 431 ft | 11 kts | 44° |
| 2026-05-07 23:30 | 48.17043 | 17.20392 | 431 ft | 14 kts | 44° |
| 2026-05-07 23:30 | 48.17108 | 17.20486 | 424 ft | 12 kts | 44° |
| 2026-05-07 23:31 | 48.17165 | 17.20574 | 431 ft | 11 kts | 58° |
| 2026-05-07 23:31 | 48.17145 | 17.20680 | 426 ft | 13 kts | 133° |
| 2026-05-07 23:31 | 48.17080 | 17.20783 | 426 ft | 13 kts | 133° |
| 2026-05-07 23:31 | 48.17021 | 17.20876 | 423 ft | 12 kts | 134° |
| 2026-05-07 23:32 | 48.16968 | 17.20959 | 431 ft | 11 kts | 134° |
| 2026-05-07 23:32 | 48.16893 | 17.21074 | 426 ft | 20 kts | 133° |
| 2026-05-07 23:32 | 48.16796 | 17.21233 | 431 ft | 20 kts | 134° |
| 2026-05-07 23:32 | 48.16694 | 17.21390 | 431 ft | 22 kts | 134° |
| 2026-05-07 23:33 | 48.16584 | 17.21559 | 427 ft | 23 kts | 133° |
| 2026-05-07 23:33 | 48.16460 | 17.21754 | 431 ft | 28 kts | 134° |
| 2026-05-07 23:33 | 48.16322 | 17.21967 | 424 ft | 29 kts | 133° |
| 2026-05-07 23:33 | 48.16179 | 17.22190 | 431 ft | 30 kts | 134° |
| 2026-05-07 23:34 | 48.16030 | 17.22423 | 431 ft | 32 kts | 134° |
| 2026-05-07 23:34 | 48.15873 | 17.22663 | 427 ft | 33 kts | 134° |
| 2026-05-07 23:34 | 48.15733 | 17.22883 | 425 ft | 21 kts | 131° |
| 2026-05-07 23:34 | 48.15687 | 17.23048 | 421 ft | 16 kts | 105° |
| 2026-05-07 23:35 | 48.15707 | 17.23186 | 424 ft | 12 kts | 43° |
| 2026-05-07 23:35 | 48.15772 | 17.23187 | 425 ft | 12 kts | 317° |
| 2026-05-07 23:35 | 48.15939 | 17.22921 | 424 ft | 71 kts | 314° |
| 2026-05-07 23:35 | 48.16432 | 17.22162 | 431 ft | 130 kts | 314° |
| 2026-05-07 23:36 | 48.17152 | 17.21039 | 601 ft | 159 kts | 311° |
| 2026-05-07 23:36 | 48.17946 | 17.19946 | 1392 ft | 156 kts | 330° |
| 2026-05-07 23:36 | 48.19009 | 17.19750 | 2097 ft | 161 kts | 11° |
| 2026-05-07 23:36 | 48.19976 | 17.20616 | 2756 ft | 169 kts | 46° |
| 2026-05-07 23:37 | 48.20408 | 17.22273 | 3367 ft | 179 kts | 88° |
| 2026-05-07 23:37 | 48.20005 | 17.24039 | 3851 ft | 190 kts | 132° |
| 2026-05-07 23:37 | 48.18796 | 17.24957 | 4129 ft | 209 kts | 180° |
| 2026-05-07 23:37 | 48.17392 | 17.24287 | 4403 ft | 224 kts | 223° |
| 2026-05-07 23:38 | 48.16536 | 17.22284 | 4747 ft | 241 kts | 252° |
| 2026-05-07 23:38 | 48.16118 | 17.19733 | 5236 ft | 260 kts | 263° |
| 2026-05-07 23:38 | 48.16336 | 17.17042 | 5994 ft | 266 kts | 296° |
| 2026-05-07 23:38 | 48.17351 | 17.14690 | 6842 ft | 271 kts | 305° |
| 2026-05-07 23:39 | 48.18435 | 17.12365 | 7684 ft | 274 kts | 304° |
| 2026-05-07 23:39 | 48.19519 | 17.09992 | 8520 ft | 278 kts | 303° |
| 2026-05-07 23:39 | 48.20603 | 17.07559 | 9351 ft | 282 kts | 303° |
| 2026-05-07 23:39 | 48.21684 | 17.05081 | 10172 ft | 286 kts | 302° |
| 2026-05-07 23:40 | 48.22805 | 17.02483 | 10508 ft | 308 kts | 302° |
| 2026-05-07 23:40 | 48.24010 | 16.99677 | 10768 ft | 330 kts | 302° |
| 2026-05-07 23:40 | 48.25158 | 16.96693 | 11346 ft | 338 kts | 291° |
| 2026-05-07 23:40 | 48.25606 | 16.93230 | 12053 ft | 342 kts | 269° |
| 2026-05-07 23:41 | 48.25119 | 16.89738 | 12790 ft | 346 kts | 246° |
| 2026-05-07 23:41 | 48.23790 | 16.86722 | 13550 ft | 350 kts | 231° |
| 2026-05-07 23:41 | 48.22230 | 16.83904 | 14255 ft | 353 kts | 231° |
| 2026-05-07 23:41 | 48.20644 | 16.81074 | 14925 ft | 356 kts | 231° |
| 2026-05-07 23:42 | 48.19045 | 16.78226 | 15595 ft | 358 kts | 231° |
| 2026-05-07 23:42 | 48.17440 | 16.75357 | 16263 ft | 360 kts | 231° |
| 2026-05-07 23:42 | 48.15831 | 16.72470 | 16926 ft | 363 kts | 231° |
| 2026-05-07 23:42 | 48.14208 | 16.69556 | 17587 ft | 365 kts | 232° |
| 2026-05-07 23:43 | 48.12571 | 16.66636 | 18239 ft | 368 kts | 230° |
| 2026-05-07 23:43 | 48.10675 | 16.64022 | 18806 ft | 373 kts | 218° |
| 2026-05-07 23:43 | 48.08445 | 16.61995 | 19372 ft | 378 kts | 207° |
| 2026-05-07 23:43 | 48.05968 | 16.60590 | 19947 ft | 382 kts | 201° |
| 2026-05-07 23:44 | 48.03444 | 16.59308 | 20523 ft | 385 kts | 201° |
| 2026-05-07 23:44 | 48.00907 | 16.58012 | 21094 ft | 387 kts | 201° |
| 2026-05-07 23:44 | 47.98355 | 16.56700 | 21659 ft | 389 kts | 201° |
| 2026-05-07 23:44 | 47.95782 | 16.55379 | 22205 ft | 392 kts | 201° |
| 2026-05-07 23:45 | 47.93195 | 16.54054 | 22740 ft | 394 kts | 201° |
| 2026-05-07 23:45 | 47.90592 | 16.52724 | 23260 ft | 397 kts | 201° |
| 2026-05-07 23:45 | 47.87968 | 16.51385 | 23720 ft | 399 kts | 201° |
| 2026-05-07 23:45 | 47.85341 | 16.50048 | 24214 ft | 399 kts | 201° |
| 2026-05-07 23:46 | 47.82741 | 16.48731 | 24649 ft | 400 kts | 201° |
| 2026-05-07 23:46 | 47.80101 | 16.47392 | 25061 ft | 402 kts | 201° |
| 2026-05-07 23:46 | 47.77448 | 16.46040 | 25446 ft | 404 kts | 201° |
| 2026-05-07 23:46 | 47.74784 | 16.44683 | 25826 ft | 406 kts | 202° |
| 2026-05-07 23:47 | 47.72101 | 16.43318 | 26213 ft | 408 kts | 202° |
| 2026-05-07 23:47 | 47.70280 | 16.42395 | 26474 ft | 409 kts | 202° |
| 2026-05-07 23:47 | 47.67611 | 16.41044 | 26834 ft | 411 kts | 202° |
| 2026-05-07 23:47 | 47.64897 | 16.39674 | 27202 ft | 413 kts | 202° |
| 2026-05-07 23:48 | 47.62170 | 16.38301 | 27567 ft | 415 kts | 202° |
| 2026-05-07 23:48 | 47.59426 | 16.36920 | 27921 ft | 417 kts | 202° |
| 2026-05-07 23:48 | 47.56677 | 16.35535 | 28250 ft | 419 kts | 202° |
| 2026-05-07 23:48 | 47.53909 | 16.34143 | 28590 ft | 421 kts | 202° |
| 2026-05-07 23:49 | 47.51130 | 16.32750 | 28928 ft | 422 kts | 203° |
| 2026-05-07 23:49 | 47.48342 | 16.31350 | 29237 ft | 424 kts | 203° |
| 2026-05-07 23:49 | 47.45544 | 16.29943 | 29530 ft | 426 kts | 203° |
| 2026-05-07 23:49 | 47.42736 | 16.28531 | 29823 ft | 427 kts | 203° |
| 2026-05-07 23:50 | 47.39916 | 16.27114 | 30121 ft | 429 kts | 204° |
| 2026-05-07 23:50 | 47.37084 | 16.25695 | 30367 ft | 430 kts | 204° |
| 2026-05-07 23:50 | 47.34242 | 16.24279 | 30594 ft | 432 kts | 204° |
| 2026-05-07 23:50 | 47.31393 | 16.22865 | 30819 ft | 433 kts | 204° |
| 2026-05-07 23:51 | 47.28548 | 16.21453 | 31134 ft | 431 kts | 204° |
| 2026-05-07 23:51 | 47.25739 | 16.20058 | 31438 ft | 430 kts | 204° |
| 2026-05-07 23:51 | 47.22907 | 16.18653 | 31743 ft | 429 kts | 204° |
| 2026-05-07 23:51 | 47.20082 | 16.17255 | 32051 ft | 428 kts | 204° |
| 2026-05-07 23:52 | 47.17257 | 16.15856 | 32369 ft | 427 kts | 204° |
| 2026-05-07 23:52 | 47.14440 | 16.14462 | 32674 ft | 426 kts | 204° |
| 2026-05-07 23:52 | 47.11633 | 16.13071 | 32975 ft | 425 kts | 204° |
| 2026-05-07 23:52 | 47.08837 | 16.11685 | 33273 ft | 424 kts | 204° |
| 2026-05-07 23:53 | 47.06039 | 16.10301 | 33589 ft | 423 kts | 204° |
| 2026-05-07 23:53 | 47.03252 | 16.08924 | 33904 ft | 422 kts | 204° |
| 2026-05-07 23:53 | 47.00409 | 16.07772 | 34185 ft | 427 kts | 196° |
| 2026-05-07 23:53 | 46.97486 | 16.06984 | 34425 ft | 427 kts | 196° |
| 2026-05-07 23:54 | 46.94567 | 16.06207 | 34669 ft | 427 kts | 195° |
| 2026-05-07 23:54 | 46.91645 | 16.05432 | 34892 ft | 427 kts | 195° |
| 2026-05-07 23:54 | 46.88722 | 16.04657 | 35108 ft | 427 kts | 195° |
| 2026-05-07 23:54 | 46.85796 | 16.03877 | 35321 ft | 427 kts | 195° |
| 2026-05-07 23:55 | 46.82911 | 16.03105 | 35533 ft | 427 kts | 195° |
| 2026-05-07 23:55 | 46.79990 | 16.02324 | 35739 ft | 427 kts | 195° |
| 2026-05-07 23:55 | 46.77065 | 16.01543 | 35934 ft | 427 kts | 195° |
| 2026-05-07 23:55 | 46.74141 | 16.00759 | 36056 ft | 427 kts | 195° |
| 2026-05-07 23:56 | 46.68284 | 15.99261 | 36081 ft | 430 kts | 191° |
| 2026-05-07 23:56 | 46.62269 | 15.98922 | 36078 ft | 433 kts | 187° |
| 2026-05-07 23:57 | 46.56241 | 15.98682 | 36086 ft | 433 kts | 187° |
| 2026-05-07 23:57 | 46.50212 | 15.98431 | 36086 ft | 433 kts | 187° |
| 2026-05-07 23:58 | 46.44182 | 15.98174 | 36074 ft | 433 kts | 187° |
| 2026-05-07 23:58 | 46.38156 | 15.97913 | 36079 ft | 433 kts | 187° |
| 2026-05-07 23:59 | 46.32145 | 15.97501 | 36079 ft | 429 kts | 194° |
| 2026-05-07 23:59 | 46.26564 | 15.95110 | 36071 ft | 419 kts | 207° |
| 2026-05-08 00:00 | 46.21148 | 15.92000 | 36073 ft | 419 kts | 206° |
| 2026-05-08 00:00 | 46.15721 | 15.88908 | 36076 ft | 419 kts | 207° |
| 2026-05-08 00:01 | 46.10293 | 15.85819 | 36079 ft | 419 kts | 207° |
| 2026-05-08 00:01 | 46.04868 | 15.82737 | 36079 ft | 419 kts | 207° |
| 2026-05-08 00:02 | 45.99448 | 15.79662 | 36078 ft | 418 kts | 207° |
| 2026-05-08 00:02 | 45.94029 | 15.76592 | 36078 ft | 418 kts | 207° |
| 2026-05-08 00:03 | 45.88616 | 15.73543 | 36078 ft | 418 kts | 207° |
| 2026-05-08 00:03 | 45.83196 | 15.70492 | 36086 ft | 418 kts | 207° |
| 2026-05-08 00:04 | 45.77790 | 15.67452 | 36089 ft | 418 kts | 207° |
| 2026-05-08 00:04 | 45.72382 | 15.64422 | 36088 ft | 417 kts | 207° |
| 2026-05-08 00:05 | 45.66983 | 15.61402 | 36088 ft | 416 kts | 207° |
| 2026-05-08 00:05 | 45.61622 | 15.58412 | 36089 ft | 416 kts | 207° |
| 2026-05-08 00:06 | 45.56235 | 15.55409 | 36087 ft | 415 kts | 207° |
| 2026-05-08 00:06 | 45.50853 | 15.52404 | 35793 ft | 414 kts | 207° |
| 2026-05-08 00:07 | 45.48166 | 15.50910 | 35538 ft | 414 kts | 208° |
| 2026-05-08 00:07 | 45.45487 | 15.49426 | 35292 ft | 413 kts | 208° |
| 2026-05-08 00:07 | 45.42809 | 15.47946 | 34981 ft | 413 kts | 208° |
| 2026-05-08 00:07 | 45.40124 | 15.46460 | 34165 ft | 415 kts | 208° |
| 2026-05-08 00:08 | 45.37430 | 15.44965 | 33269 ft | 416 kts | 208° |
| 2026-05-08 00:08 | 45.34731 | 15.43472 | 32411 ft | 416 kts | 208° |
| 2026-05-08 00:08 | 45.32038 | 15.41990 | 31850 ft | 411 kts | 208° |
| 2026-05-08 00:08 | 45.29385 | 15.40537 | 31281 ft | 406 kts | 208° |
| 2026-05-08 00:09 | 45.26759 | 15.39099 | 30731 ft | 402 kts | 209° |
| 2026-05-08 00:09 | 45.24162 | 15.37672 | 30180 ft | 399 kts | 209° |
| 2026-05-08 00:09 | 45.21584 | 15.36253 | 29578 ft | 395 kts | 209° |
| 2026-05-08 00:09 | 45.19038 | 15.34853 | 29044 ft | 390 kts | 208° |
| 2026-05-08 00:10 | 45.16522 | 15.33471 | 28528 ft | 386 kts | 208° |
| 2026-05-08 00:10 | 45.14031 | 15.32103 | 27995 ft | 382 kts | 208° |
| 2026-05-08 00:10 | 45.11559 | 15.30745 | 27487 ft | 379 kts | 208° |
| 2026-05-08 00:10 | 45.09117 | 15.29407 | 26979 ft | 375 kts | 208° |
| 2026-05-08 00:11 | 45.06691 | 15.28082 | 26476 ft | 372 kts | 207° |
| 2026-05-08 00:11 | 45.04314 | 15.26788 | 25998 ft | 369 kts | 207° |
| 2026-05-08 00:11 | 45.01923 | 15.25484 | 25502 ft | 368 kts | 207° |
| 2026-05-08 00:11 | 44.99543 | 15.24184 | 25031 ft | 365 kts | 207° |
| 2026-05-08 00:12 | 44.97178 | 15.22892 | 24561 ft | 363 kts | 206° |
| 2026-05-08 00:12 | 44.94826 | 15.21607 | 23915 ft | 366 kts | 206° |
| 2026-05-08 00:12 | 44.92375 | 15.20418 | 22877 ft | 380 kts | 200° |
| 2026-05-08 00:12 | 44.89783 | 15.19431 | 21786 ft | 391 kts | 199° |
| 2026-05-08 00:13 | 44.87121 | 15.18480 | 21054 ft | 393 kts | 198° |
| 2026-05-08 00:13 | 44.84480 | 15.17576 | 20578 ft | 388 kts | 197° |
| 2026-05-08 00:13 | 44.81862 | 15.16695 | 20063 ft | 385 kts | 197° |
| 2026-05-08 00:13 | 44.79263 | 15.15820 | 19529 ft | 383 kts | 197° |
| 2026-05-08 00:14 | 44.76682 | 15.14944 | 19010 ft | 381 kts | 197° |
| 2026-05-08 00:14 | 44.74113 | 15.14062 | 18492 ft | 379 kts | 197° |
| 2026-05-08 00:14 | 44.71558 | 15.13172 | 17926 ft | 377 kts | 197° |
| 2026-05-08 00:14 | 44.69020 | 15.12282 | 17354 ft | 375 kts | 196° |
| 2026-05-08 00:15 | 44.66498 | 15.11396 | 16808 ft | 372 kts | 196° |
| 2026-05-08 00:15 | 44.63992 | 15.10519 | 16267 ft | 370 kts | 196° |
| 2026-05-08 00:15 | 44.61502 | 15.09653 | 15733 ft | 368 kts | 195° |
| 2026-05-08 00:15 | 44.59026 | 15.08796 | 15214 ft | 366 kts | 195° |
| 2026-05-08 00:16 | 44.56563 | 15.07944 | 14726 ft | 363 kts | 195° |
| 2026-05-08 00:16 | 44.54116 | 15.07093 | 14233 ft | 361 kts | 195° |
| 2026-05-08 00:16 | 44.51681 | 15.06248 | 13751 ft | 359 kts | 195° |
| 2026-05-08 00:16 | 44.49263 | 15.05410 | 13201 ft | 357 kts | 195° |
| 2026-05-08 00:17 | 44.46862 | 15.04578 | 12683 ft | 354 kts | 195° |
| 2026-05-08 00:17 | 44.44482 | 15.03754 | 12185 ft | 350 kts | 195° |
| 2026-05-08 00:17 | 44.42126 | 15.02942 | 11662 ft | 348 kts | 195° |
| 2026-05-08 00:17 | 44.39780 | 15.02133 | 11142 ft | 345 kts | 195° |
| 2026-05-08 00:18 | 44.37450 | 15.01346 | 10599 ft | 343 kts | 192° |
| 2026-05-08 00:18 | 44.35109 | 15.01116 | 10407 ft | 332 kts | 177° |
| 2026-05-08 00:18 | 44.32877 | 15.01644 | 10284 ft | 319 kts | 169° |
| 2026-05-08 00:18 | 44.30753 | 15.02298 | 10167 ft | 307 kts | 169° |
| 2026-05-08 00:19 | 44.28706 | 15.02930 | 10040 ft | 296 kts | 169° |
| 2026-05-08 00:19 | 44.26720 | 15.03542 | 9754 ft | 290 kts | 169° |
| 2026-05-08 00:19 | 44.24745 | 15.04148 | 9180 ft | 295 kts | 169° |
| 2026-05-08 00:19 | 44.22732 | 15.04763 | 8680 ft | 296 kts | 169° |
| 2026-05-08 00:20 | 44.20727 | 15.05375 | 8267 ft | 294 kts | 169° |
| 2026-05-08 00:20 | 44.18737 | 15.05983 | 7859 ft | 292 kts | 168° |
| 2026-05-08 00:20 | 44.16762 | 15.06589 | 7465 ft | 289 kts | 168° |
| 2026-05-08 00:20 | 44.14806 | 15.07193 | 7071 ft | 287 kts | 168° |
| 2026-05-08 00:21 | 44.12861 | 15.07795 | 6673 ft | 285 kts | 168° |
| 2026-05-08 00:21 | 44.10941 | 15.08385 | 6450 ft | 277 kts | 168° |
| 2026-05-08 00:21 | 44.09116 | 15.08944 | 6092 ft | 263 kts | 168° |
| 2026-05-08 00:21 | 44.07344 | 15.09490 | 5516 ft | 259 kts | 166° |
| 2026-05-08 00:22 | 44.05706 | 15.10466 | 5185 ft | 259 kts | 144° |
| 2026-05-08 00:22 | 44.04412 | 15.12193 | 4816 ft | 258 kts | 131° |
| 2026-05-08 00:22 | 44.03225 | 15.14055 | 4437 ft | 256 kts | 131° |
| 2026-05-08 00:22 | 44.02061 | 15.15875 | 4070 ft | 246 kts | 131° |
| 2026-05-08 00:23 | 44.00956 | 15.17600 | 3737 ft | 233 kts | 131° |
| 2026-05-08 00:23 | 43.99919 | 15.19219 | 3418 ft | 222 kts | 131° |
| 2026-05-08 00:23 | 43.99050 | 15.20920 | 3094 ft | 212 kts | 107° |
| 2026-05-08 00:23 | 43.99091 | 15.22878 | 2792 ft | 204 kts | 66° |
| 2026-05-08 00:24 | 44.00033 | 15.24271 | 2530 ft | 199 kts | 34° |
| 2026-05-08 00:24 | 44.01129 | 15.25367 | 2200 ft | 189 kts | 42° |
| 2026-05-08 00:24 | 44.02075 | 15.26557 | 1908 ft | 177 kts | 45° |
| 2026-05-08 00:24 | 44.02923 | 15.27666 | 1689 ft | 159 kts | 45° |
| 2026-05-08 00:25 | 44.03695 | 15.28670 | 1479 ft | 147 kts | 45° |
| 2026-05-08 00:25 | 44.04431 | 15.29621 | 1292 ft | 143 kts | 45° |
| 2026-05-08 00:25 | 44.05147 | 15.30551 | 1100 ft | 140 kts | 47° |
| 2026-05-08 00:25 | 44.05836 | 15.31504 | 913 ft | 139 kts | 46° |
| 2026-05-08 00:26 | 44.06554 | 15.32399 | 753 ft | 138 kts | 43° |
| 2026-05-08 00:26 | 44.07261 | 15.33275 | 526 ft | 137 kts | 42° |
| 2026-05-08 00:26 | 44.07975 | 15.34156 | 316 ft | 136 kts | 41° |
| 2026-05-08 00:26 | 44.08628 | 15.34966 | 277 ft | 102 kts | 43° |
| 2026-05-08 00:27 | 44.08944 | 15.35358 | 277 ft | 37 kts | 42° |
| 2026-05-08 00:27 | 44.09120 | 15.35584 | 276 ft | 32 kts | 42° |
| 2026-05-08 00:27 | 44.09239 | 15.35724 | 275 ft | 16 kts | 32° |
| 2026-05-08 00:27 | 44.09333 | 15.35677 | 278 ft | 16 kts | 310° |
| 2026-05-08 00:28 | 44.09391 | 15.35586 | 278 ft | 10 kts | 311° |
| 2026-05-08 00:28 | 44.09450 | 15.35551 | 277 ft | 9 kts | 356° |
| 2026-05-08 00:28 | 44.09523 | 15.35547 | 275 ft | 11 kts | 358° |
| 2026-05-08 00:28 | 44.09577 | 15.35531 | 274 ft | 7 kts | 316° |
| 2026-05-08 00:29 | 44.09609 | 15.35488 | 274 ft | 6 kts | 328° |
| 2026-05-08 00:29 | 44.09641 | 15.35462 | 274 ft | 5 kts | 330° |
| 2026-05-08 00:29 | 44.09666 | 15.35441 | 274 ft | 3 kts | 328° |
| 2026-05-08 00:29 | 44.09675 | 15.35433 | 274 ft | 0 kts | 327° |